sensor_id;sensor_type;location;lat;lon;timestamp;P1;durP1;ratioP1;P2;durP2;ratioP2
27778;SDS011;30234;48.090;11.464;2023-04-10T00:02:35;9.07;;;5.68;;
27778;SDS011;30234;48.090;11.464;2023-04-10T00:06:37;7.82;;;5.57;;
27778;SDS011;30234;48.090;11.464;2023-04-10T00:10:38;8.50;;;5.70;;
27778;SDS011;30234;48.090;11.464;2023-04-10T00:14:39;8.63;;;4.82;;
27778;SDS011;30234;48.090;11.464;2023-04-10T00:18:40;8.65;;;5.13;;
27778;SDS011;30234;48.090;11.464;2023-04-10T00:22:40;7.72;;;5.28;;
27778;SDS011;30234;48.090;11.464;2023-04-10T00:26:42;8.38;;;4.95;;
27778;SDS011;30234;48.090;11.464;2023-04-10T00:30:42;6.53;;;4.22;;
27778;SDS011;30234;48.090;11.464;2023-04-10T00:34:44;7.75;;;4.97;;
27778;SDS011;30234;48.090;11.464;2023-04-10T00:38:45;7.20;;;4.43;;
27778;SDS011;30234;48.090;11.464;2023-04-10T00:42:47;8.32;;;5.53;;
27778;SDS011;30234;48.090;11.464;2023-04-10T00:46:47;8.63;;;5.30;;
27778;SDS011;30234;48.090;11.464;2023-04-10T00:50:48;8.80;;;5.22;;
27778;SDS011;30234;48.090;11.464;2023-04-10T00:54:49;7.20;;;4.75;;
27778;SDS011;30234;48.090;11.464;2023-04-10T00:58:50;8.23;;;4.63;;
27778;SDS011;30234;48.090;11.464;2023-04-10T01:02:51;7.72;;;4.57;;
27778;SDS011;30234;48.090;11.464;2023-04-10T01:06:57;6.35;;;4.57;;
27778;SDS011;30234;48.090;11.464;2023-04-10T01:11:17;7.55;;;4.53;;
27778;SDS011;30234;48.090;11.464;2023-04-10T01:16:01;6.47;;;4.45;;
27778;SDS011;30234;48.090;11.464;2023-04-10T01:20:22;7.45;;;4.82;;
27778;SDS011;30234;48.090;11.464;2023-04-10T01:24:39;11.25;;;5.63;;
27778;SDS011;30234;48.090;11.464;2023-04-10T01:29:10;6.85;;;5.32;;
27778;SDS011;30234;48.090;11.464;2023-04-10T01:33:15;8.02;;;5.18;;
27778;SDS011;30234;48.090;11.464;2023-04-10T01:37:21;9.32;;;5.30;;
27778;SDS011;30234;48.090;11.464;2023-04-10T01:41:27;6.90;;;4.50;;
27778;SDS011;30234;48.090;11.464;2023-04-10T01:45:28;8.38;;;4.97;;
27778;SDS011;30234;48.090;11.464;2023-04-10T01:49:30;9.77;;;4.90;;
27778;SDS011;30234;48.090;11.464;2023-04-10T01:53:34;7.00;;;4.78;;
27778;SDS011;30234;48.090;11.464;2023-04-10T01:57:35;7.15;;;4.60;;
27778;SDS011;30234;48.090;11.464;2023-04-10T02:01:36;8.00;;;5.05;;
27778;SDS011;30234;48.090;11.464;2023-04-10T02:14:16;9.52;;;5.80;;
27778;SDS011;30234;48.090;11.464;2023-04-10T02:18:19;6.75;;;4.57;;
27778;SDS011;30234;48.090;11.464;2023-04-10T02:22:22;7.55;;;4.63;;
27778;SDS011;30234;48.090;11.464;2023-04-10T02:26:24;8.52;;;4.65;;
27778;SDS011;30234;48.090;11.464;2023-04-10T02:30:25;7.97;;;5.30;;
27778;SDS011;30234;48.090;11.464;2023-04-10T02:34:26;5.93;;;4.25;;
27778;SDS011;30234;48.090;11.464;2023-04-10T02:38:27;8.80;;;5.18;;
27778;SDS011;30234;48.090;11.464;2023-04-10T02:42:28;6.95;;;4.57;;
27778;SDS011;30234;48.090;11.464;2023-04-10T02:46:28;9.13;;;5.10;;
27778;SDS011;30234;48.090;11.464;2023-04-10T02:50:29;8.18;;;4.57;;
27778;SDS011;30234;48.090;11.464;2023-04-10T02:54:31;9.63;;;5.07;;
27778;SDS011;30234;48.090;11.464;2023-04-10T02:58:32;6.70;;;4.28;;
27778;SDS011;30234;48.090;11.464;2023-04-10T03:02:33;7.10;;;4.72;;
27778;SDS011;30234;48.090;11.464;2023-04-10T03:06:34;6.57;;;4.25;;
27778;SDS011;30234;48.090;11.464;2023-04-10T03:10:35;5.95;;;4.20;;
27778;SDS011;30234;48.090;11.464;2023-04-10T03:14:36;7.15;;;4.75;;
27778;SDS011;30234;48.090;11.464;2023-04-10T03:22:40;7.00;;;4.55;;
27778;SDS011;30234;48.090;11.464;2023-04-10T03:26:40;8.02;;;4.40;;
27778;SDS011;30234;48.090;11.464;2023-04-10T03:30:41;7.78;;;4.50;;
27778;SDS011;30234;48.090;11.464;2023-04-10T03:34:42;7.40;;;4.43;;
27778;SDS011;30234;48.090;11.464;2023-04-10T03:38:43;8.88;;;5.20;;
27778;SDS011;30234;48.090;11.464;2023-04-10T03:42:44;7.53;;;4.30;;
27778;SDS011;30234;48.090;11.464;2023-04-10T03:46:45;10.25;;;4.65;;
27778;SDS011;30234;48.090;11.464;2023-04-10T03:50:46;6.55;;;3.65;;
27778;SDS011;30234;48.090;11.464;2023-04-10T03:54:47;7.88;;;5.05;;
27778;SDS011;30234;48.090;11.464;2023-04-10T03:58:48;7.82;;;4.53;;
27778;SDS011;30234;48.090;11.464;2023-04-10T04:02:48;7.05;;;4.30;;
27778;SDS011;30234;48.090;11.464;2023-04-10T04:06:50;6.35;;;4.30;;
27778;SDS011;30234;48.090;11.464;2023-04-10T04:10:51;6.93;;;4.43;;
27778;SDS011;30234;48.090;11.464;2023-04-10T04:14:52;8.23;;;4.70;;
27778;SDS011;30234;48.090;11.464;2023-04-10T04:18:53;9.90;;;5.18;;
27778;SDS011;30234;48.090;11.464;2023-04-10T04:22:54;8.63;;;4.70;;
27778;SDS011;30234;48.090;11.464;2023-04-10T04:26:55;7.60;;;4.75;;
27778;SDS011;30234;48.090;11.464;2023-04-10T04:30:56;7.80;;;4.53;;
27778;SDS011;30234;48.090;11.464;2023-04-10T04:34:57;6.97;;;4.97;;
27778;SDS011;30234;48.090;11.464;2023-04-10T04:38:57;6.45;;;4.10;;
27778;SDS011;30234;48.090;11.464;2023-04-10T04:42:58;8.63;;;5.15;;
27778;SDS011;30234;48.090;11.464;2023-04-10T04:46:59;7.90;;;5.00;;
27778;SDS011;30234;48.090;11.464;2023-04-10T04:51:00;6.93;;;4.25;;
27778;SDS011;30234;48.090;11.464;2023-04-10T04:55:01;7.63;;;5.10;;
27778;SDS011;30234;48.090;11.464;2023-04-10T04:59:02;9.38;;;5.57;;
27778;SDS011;30234;48.090;11.464;2023-04-10T05:03:03;8.75;;;5.97;;
27778;SDS011;30234;48.090;11.464;2023-04-10T05:07:05;11.30;;;7.28;;
27778;SDS011;30234;48.090;11.464;2023-04-10T05:11:06;13.07;;;7.68;;
27778;SDS011;30234;48.090;11.464;2023-04-10T05:15:07;15.25;;;9.52;;
27778;SDS011;30234;48.090;11.464;2023-04-10T05:19:09;16.80;;;10.73;;
27778;SDS011;30234;48.090;11.464;2023-04-10T05:23:10;15.95;;;10.20;;
27778;SDS011;30234;48.090;11.464;2023-04-10T05:27:11;11.98;;;8.52;;
27778;SDS011;30234;48.090;11.464;2023-04-10T05:31:12;10.95;;;8.02;;
27778;SDS011;30234;48.090;11.464;2023-04-10T05:35:13;10.48;;;6.25;;
27778;SDS011;30234;48.090;11.464;2023-04-10T05:39:13;8.50;;;4.90;;
27778;SDS011;30234;48.090;11.464;2023-04-10T05:43:15;6.38;;;4.30;;
27778;SDS011;30234;48.090;11.464;2023-04-10T05:47:15;5.68;;;4.03;;
27778;SDS011;30234;48.090;11.464;2023-04-10T05:51:16;5.00;;;3.63;;
27778;SDS011;30234;48.090;11.464;2023-04-10T05:55:17;5.78;;;4.28;;
27778;SDS011;30234;48.090;11.464;2023-04-10T05:59:18;5.80;;;3.90;;
27778;SDS011;30234;48.090;11.464;2023-04-10T06:03:19;4.85;;;3.47;;
27778;SDS011;30234;48.090;11.464;2023-04-10T06:07:20;4.50;;;3.95;;
27778;SDS011;30234;48.090;11.464;2023-04-10T06:11:21;4.95;;;3.70;;
27778;SDS011;30234;48.090;11.464;2023-04-10T06:15:22;6.20;;;3.90;;
27778;SDS011;30234;48.090;11.464;2023-04-10T06:19:23;3.95;;;3.28;;
27778;SDS011;30234;48.090;11.464;2023-04-10T06:23:24;4.75;;;3.53;;
27778;SDS011;30234;48.090;11.464;2023-04-10T06:27:26;4.38;;;3.88;;
27778;SDS011;30234;48.090;11.464;2023-04-10T06:31:27;5.15;;;4.05;;
27778;SDS011;30234;48.090;11.464;2023-04-10T06:35:33;5.32;;;3.88;;
27778;SDS011;30234;48.090;11.464;2023-04-10T06:39:33;5.72;;;4.65;;
27778;SDS011;30234;48.090;11.464;2023-04-10T06:43:35;5.50;;;4.20;;
27778;SDS011;30234;48.090;11.464;2023-04-10T06:47:38;5.28;;;4.13;;
27778;SDS011;30234;48.090;11.464;2023-04-10T06:51:39;6.07;;;4.03;;
27778;SDS011;30234;48.090;11.464;2023-04-10T06:55:40;5.80;;;4.57;;
27778;SDS011;30234;48.090;11.464;2023-04-10T06:59:41;5.28;;;4.20;;
27778;SDS011;30234;48.090;11.464;2023-04-10T07:03:42;6.10;;;4.47;;
27778;SDS011;30234;48.090;11.464;2023-04-10T07:07:43;6.28;;;4.88;;
27778;SDS011;30234;48.090;11.464;2023-04-10T07:11:46;5.57;;;4.28;;
27778;SDS011;30234;48.090;11.464;2023-04-10T07:15:47;5.30;;;4.30;;
27778;SDS011;30234;48.090;11.464;2023-04-10T07:19:48;4.88;;;4.10;;
27778;SDS011;30234;48.090;11.464;2023-04-10T07:23:49;6.10;;;4.55;;
27778;SDS011;30234;48.090;11.464;2023-04-10T07:27:49;5.57;;;4.35;;
27778;SDS011;30234;48.090;11.464;2023-04-10T07:31:50;5.35;;;4.03;;
27778;SDS011;30234;48.090;11.464;2023-04-10T07:35:51;5.22;;;4.15;;
27778;SDS011;30234;48.090;11.464;2023-04-10T07:39:52;7.57;;;4.80;;
27778;SDS011;30234;48.090;11.464;2023-04-10T07:43:53;6.13;;;4.32;;
27778;SDS011;30234;48.090;11.464;2023-04-10T07:47:54;6.65;;;4.78;;
27778;SDS011;30234;48.090;11.464;2023-04-10T07:51:55;6.47;;;4.75;;
27778;SDS011;30234;48.090;11.464;2023-04-10T07:55:56;5.97;;;4.63;;
27778;SDS011;30234;48.090;11.464;2023-04-10T07:59:57;5.65;;;4.63;;
27778;SDS011;30234;48.090;11.464;2023-04-10T08:03:58;5.00;;;4.50;;
27778;SDS011;30234;48.090;11.464;2023-04-10T08:07:59;6.95;;;4.80;;
27778;SDS011;30234;48.090;11.464;2023-04-10T08:12:00;6.35;;;4.93;;
27778;SDS011;30234;48.090;11.464;2023-04-10T08:16:02;6.25;;;4.47;;
27778;SDS011;30234;48.090;11.464;2023-04-10T08:20:03;7.13;;;5.03;;
27778;SDS011;30234;48.090;11.464;2023-04-10T08:24:05;5.55;;;4.22;;
27778;SDS011;30234;48.090;11.464;2023-04-10T08:28:06;4.90;;;4.15;;
27778;SDS011;30234;48.090;11.464;2023-04-10T08:32:07;5.85;;;4.80;;
27778;SDS011;30234;48.090;11.464;2023-04-10T08:36:08;4.93;;;3.83;;
27778;SDS011;30234;48.090;11.464;2023-04-10T08:40:09;5.82;;;4.20;;
27778;SDS011;30234;48.090;11.464;2023-04-10T08:44:11;5.65;;;4.57;;
27778;SDS011;30234;48.090;11.464;2023-04-10T08:48:12;6.15;;;4.65;;
27778;SDS011;30234;48.090;11.464;2023-04-10T08:52:17;5.13;;;4.20;;
27778;SDS011;30234;48.090;11.464;2023-04-10T08:56:21;5.90;;;4.70;;
27778;SDS011;30234;48.090;11.464;2023-04-10T09:00:23;4.40;;;4.00;;
27778;SDS011;30234;48.090;11.464;2023-04-10T09:04:25;6.68;;;4.45;;
27778;SDS011;30234;48.090;11.464;2023-04-10T09:08:26;4.53;;;3.72;;
27778;SDS011;30234;48.090;11.464;2023-04-10T09:12:28;4.18;;;3.58;;
27778;SDS011;30234;48.090;11.464;2023-04-10T09:16:42;5.88;;;3.80;;
27778;SDS011;30234;48.090;11.464;2023-04-10T09:20:43;5.40;;;3.90;;
27778;SDS011;30234;48.090;11.464;2023-04-10T09:24:50;5.15;;;3.92;;
27778;SDS011;30234;48.090;11.464;2023-04-10T09:29:01;3.30;;;3.00;;
27778;SDS011;30234;48.090;11.464;2023-04-10T09:33:23;4.82;;;3.58;;
27778;SDS011;30234;48.090;11.464;2023-04-10T09:37:33;9.98;;;4.00;;
27778;SDS011;30234;48.090;11.464;2023-04-10T09:41:45;4.50;;;4.10;;
27778;SDS011;30234;48.090;11.464;2023-04-10T09:45:56;3.97;;;3.50;;
27778;SDS011;30234;48.090;11.464;2023-04-10T09:49:58;6.22;;;3.80;;
27778;SDS011;30234;48.090;11.464;2023-04-10T09:54:00;4.43;;;3.60;;
27778;SDS011;30234;48.090;11.464;2023-04-10T09:58:03;4.90;;;3.88;;
27778;SDS011;30234;48.090;11.464;2023-04-10T10:02:05;3.78;;;3.38;;
27778;SDS011;30234;48.090;11.464;2023-04-10T10:06:06;4.65;;;2.95;;
27778;SDS011;30234;48.090;11.464;2023-04-10T10:10:10;4.78;;;3.15;;
27778;SDS011;30234;48.090;11.464;2023-04-10T10:14:12;3.55;;;2.97;;
27778;SDS011;30234;48.090;11.464;2023-04-10T10:18:23;3.25;;;2.95;;
27778;SDS011;30234;48.090;11.464;2023-04-10T10:22:45;3.28;;;2.67;;
27778;SDS011;30234;48.090;11.464;2023-04-10T10:26:46;3.15;;;2.83;;
27778;SDS011;30234;48.090;11.464;2023-04-10T10:30:49;3.08;;;2.78;;
27778;SDS011;30234;48.090;11.464;2023-04-10T10:34:51;4.05;;;3.33;;
27778;SDS011;30234;48.090;11.464;2023-04-10T10:38:57;3.50;;;2.60;;
27778;SDS011;30234;48.090;11.464;2023-04-10T10:43:35;3.10;;;2.80;;
27778;SDS011;30234;48.090;11.464;2023-04-10T10:47:55;3.28;;;2.85;;
27778;SDS011;30234;48.090;11.464;2023-04-10T10:51:56;3.80;;;3.50;;
27778;SDS011;30234;48.090;11.464;2023-04-10T10:55:57;3.53;;;3.20;;
27778;SDS011;30234;48.090;11.464;2023-04-10T10:59:57;4.55;;;3.45;;
27778;SDS011;30234;48.090;11.464;2023-04-10T11:03:58;3.08;;;2.78;;
27778;SDS011;30234;48.090;11.464;2023-04-10T11:12:03;3.65;;;3.10;;
27778;SDS011;30234;48.090;11.464;2023-04-10T11:16:07;3.30;;;2.80;;
27778;SDS011;30234;48.090;11.464;2023-04-10T11:20:09;2.95;;;2.65;;
27778;SDS011;30234;48.090;11.464;2023-04-10T11:24:10;2.63;;;2.42;;
27778;SDS011;30234;48.090;11.464;2023-04-10T11:28:32;3.30;;;2.55;;
27778;SDS011;30234;48.090;11.464;2023-04-10T11:32:41;3.33;;;3.00;;
27778;SDS011;30234;48.090;11.464;2023-04-10T11:36:43;2.42;;;2.22;;
27778;SDS011;30234;48.090;11.464;2023-04-10T11:40:54;2.47;;;2.28;;
27778;SDS011;30234;48.090;11.464;2023-04-10T11:44:57;3.45;;;2.83;;
27778;SDS011;30234;48.090;11.464;2023-04-10T11:48:59;3.08;;;2.78;;
27778;SDS011;30234;48.090;11.464;2023-04-10T11:53:15;2.90;;;2.55;;
27778;SDS011;30234;48.090;11.464;2023-04-10T11:57:21;2.67;;;2.45;;
27778;SDS011;30234;48.090;11.464;2023-04-10T12:01:22;2.83;;;2.22;;
27778;SDS011;30234;48.090;11.464;2023-04-10T12:05:23;3.28;;;2.45;;
27778;SDS011;30234;48.090;11.464;2023-04-10T12:09:24;2.20;;;2.00;;
27778;SDS011;30234;48.090;11.464;2023-04-10T12:13:26;3.03;;;2.60;;
27778;SDS011;30234;48.090;11.464;2023-04-10T12:17:28;2.78;;;2.53;;
27778;SDS011;30234;48.090;11.464;2023-04-10T12:21:29;2.53;;;2.20;;
27778;SDS011;30234;48.090;11.464;2023-04-10T12:25:30;3.22;;;2.47;;
27778;SDS011;30234;48.090;11.464;2023-04-10T12:29:32;2.33;;;2.10;;
27778;SDS011;30234;48.090;11.464;2023-04-10T12:33:33;2.90;;;2.30;;
27778;SDS011;30234;48.090;11.464;2023-04-10T12:37:47;2.50;;;2.30;;
27778;SDS011;30234;48.090;11.464;2023-04-10T12:42:09;2.50;;;2.30;;
27778;SDS011;30234;48.090;11.464;2023-04-10T12:46:22;2.28;;;2.08;;
27778;SDS011;30234;48.090;11.464;2023-04-10T12:50:26;2.33;;;2.13;;
27778;SDS011;30234;48.090;11.464;2023-04-10T12:54:27;2.83;;;2.35;;
27778;SDS011;30234;48.090;11.464;2023-04-10T12:58:34;2.00;;;1.80;;
27778;SDS011;30234;48.090;11.464;2023-04-10T13:02:36;2.10;;;1.90;;
27778;SDS011;30234;48.090;11.464;2023-04-10T13:06:45;2.92;;;2.15;;
27778;SDS011;30234;48.090;11.464;2023-04-10T13:10:47;3.67;;;2.28;;
27778;SDS011;30234;48.090;11.464;2023-04-10T13:14:48;2.95;;;1.92;;
27778;SDS011;30234;48.090;11.464;2023-04-10T13:18:49;2.53;;;2.33;;
27778;SDS011;30234;48.090;11.464;2023-04-10T13:22:50;2.53;;;2.33;;
27778;SDS011;30234;48.090;11.464;2023-04-10T13:26:52;2.83;;;2.55;;
27778;SDS011;30234;48.090;11.464;2023-04-10T13:30:53;2.55;;;2.35;;
27778;SDS011;30234;48.090;11.464;2023-04-10T13:34:55;2.17;;;1.95;;
27778;SDS011;30234;48.090;11.464;2023-04-10T13:38:56;2.55;;;2.35;;
27778;SDS011;30234;48.090;11.464;2023-04-10T13:42:57;2.63;;;2.42;;
27778;SDS011;30234;48.090;11.464;2023-04-10T13:46:58;1.80;;;1.70;;
27778;SDS011;30234;48.090;11.464;2023-04-10T13:50:59;2.88;;;2.58;;
27778;SDS011;30234;48.090;11.464;2023-04-10T13:55:00;2.65;;;2.30;;
27778;SDS011;30234;48.090;11.464;2023-04-10T13:59:01;2.38;;;2.20;;
27778;SDS011;30234;48.090;11.464;2023-04-10T14:03:03;2.42;;;2.22;;
27778;SDS011;30234;48.090;11.464;2023-04-10T14:07:04;2.40;;;2.20;;
27778;SDS011;30234;48.090;11.464;2023-04-10T14:11:05;1.80;;;1.65;;
27778;SDS011;30234;48.090;11.464;2023-04-10T14:15:06;3.03;;;2.20;;
27778;SDS011;30234;48.090;11.464;2023-04-10T14:19:08;2.35;;;2.15;;
27778;SDS011;30234;48.090;11.464;2023-04-10T14:23:09;2.17;;;2.00;;
27778;SDS011;30234;48.090;11.464;2023-04-10T14:27:16;2.80;;;2.50;;
27778;SDS011;30234;48.090;11.464;2023-04-10T14:31:17;2.38;;;2.17;;
27778;SDS011;30234;48.090;11.464;2023-04-10T14:35:19;2.22;;;2.00;;
27778;SDS011;30234;48.090;11.464;2023-04-10T14:39:21;1.77;;;1.67;;
27778;SDS011;30234;48.090;11.464;2023-04-10T14:43:23;2.20;;;2.00;;
27778;SDS011;30234;48.090;11.464;2023-04-10T14:47:24;3.10;;;2.13;;
27778;SDS011;30234;48.090;11.464;2023-04-10T14:51:25;2.08;;;1.90;;
27778;SDS011;30234;48.090;11.464;2023-04-10T14:55:29;2.60;;;2.13;;
27778;SDS011;30234;48.090;11.464;2023-04-10T14:59:31;2.10;;;1.90;;
27778;SDS011;30234;48.090;11.464;2023-04-10T15:03:31;1.77;;;1.63;;
27778;SDS011;30234;48.090;11.464;2023-04-10T15:07:32;2.70;;;2.20;;
27778;SDS011;30234;48.090;11.464;2023-04-10T15:11:33;3.00;;;2.00;;
27778;SDS011;30234;48.090;11.464;2023-04-10T15:15:34;1.92;;;1.73;;
27778;SDS011;30234;48.090;11.464;2023-04-10T15:19:35;2.10;;;1.90;;
27778;SDS011;30234;48.090;11.464;2023-04-10T15:23:36;1.80;;;1.70;;
27778;SDS011;30234;48.090;11.464;2023-04-10T15:27:37;2.53;;;2.28;;
27778;SDS011;30234;48.090;11.464;2023-04-10T15:31:38;2.60;;;2.40;;
27778;SDS011;30234;48.090;11.464;2023-04-10T15:35:39;2.70;;;2.00;;
27778;SDS011;30234;48.090;11.464;2023-04-10T15:39:40;1.88;;;1.77;;
27778;SDS011;30234;48.090;11.464;2023-04-10T15:43:41;2.30;;;2.10;;
27778;SDS011;30234;48.090;11.464;2023-04-10T15:47:44;2.72;;;2.20;;
27778;SDS011;30234;48.090;11.464;2023-04-10T15:51:46;2.53;;;2.10;;
27778;SDS011;30234;48.090;11.464;2023-04-10T15:55:47;2.33;;;2.13;;
27778;SDS011;30234;48.090;11.464;2023-04-10T15:59:51;2.05;;;1.88;;
27778;SDS011;30234;48.090;11.464;2023-04-10T16:03:52;2.20;;;2.00;;
27778;SDS011;30234;48.090;11.464;2023-04-10T16:07:53;2.10;;;1.90;;
27778;SDS011;30234;48.090;11.464;2023-04-10T16:11:54;2.70;;;2.22;;
27778;SDS011;30234;48.090;11.464;2023-04-10T16:15:56;2.83;;;2.35;;
27778;SDS011;30234;48.090;11.464;2023-04-10T16:20:03;3.28;;;2.45;;
27778;SDS011;30234;48.090;11.464;2023-04-10T16:24:05;2.22;;;2.03;;
27778;SDS011;30234;48.090;11.464;2023-04-10T16:28:06;3.35;;;2.60;;
27778;SDS011;30234;48.090;11.464;2023-04-10T16:32:07;4.80;;;3.83;;
27778;SDS011;30234;48.090;11.464;2023-04-10T16:36:08;3.67;;;2.80;;
27778;SDS011;30234;48.090;11.464;2023-04-10T16:40:09;3.53;;;2.60;;
27778;SDS011;30234;48.090;11.464;2023-04-10T16:44:14;2.42;;;2.22;;
27778;SDS011;30234;48.090;11.464;2023-04-10T16:48:15;3.03;;;1.92;;
27778;SDS011;30234;48.090;11.464;2023-04-10T16:52:15;4.85;;;2.42;;
27778;SDS011;30234;48.090;11.464;2023-04-10T16:56:16;7.78;;;4.57;;
27778;SDS011;30234;48.090;11.464;2023-04-10T17:00:17;7.05;;;4.50;;
27778;SDS011;30234;48.090;11.464;2023-04-10T17:04:18;6.85;;;4.32;;
27778;SDS011;30234;48.090;11.464;2023-04-10T17:08:19;6.85;;;4.47;;
27778;SDS011;30234;48.090;11.464;2023-04-10T17:12:20;9.18;;;5.15;;
27778;SDS011;30234;48.090;11.464;2023-04-10T17:16:21;5.20;;;4.20;;
27778;SDS011;30234;48.090;11.464;2023-04-10T17:20:22;6.95;;;5.68;;
27778;SDS011;30234;48.090;11.464;2023-04-10T17:24:23;4.45;;;3.22;;
27778;SDS011;30234;48.090;11.464;2023-04-10T17:28:24;4.57;;;3.30;;
27778;SDS011;30234;48.090;11.464;2023-04-10T17:32:25;4.13;;;3.20;;
27778;SDS011;30234;48.090;11.464;2023-04-10T17:36:26;3.50;;;2.83;;
27778;SDS011;30234;48.090;11.464;2023-04-10T17:40:27;3.47;;;2.78;;
27778;SDS011;30234;48.090;11.464;2023-04-10T17:44:28;3.25;;;2.53;;
27778;SDS011;30234;48.090;11.464;2023-04-10T17:48:29;4.13;;;3.13;;
27778;SDS011;30234;48.090;11.464;2023-04-10T17:52:30;5.22;;;4.00;;
27778;SDS011;30234;48.090;11.464;2023-04-10T17:56:31;7.10;;;4.05;;
27778;SDS011;30234;48.090;11.464;2023-04-10T18:00:32;8.43;;;5.15;;
27778;SDS011;30234;48.090;11.464;2023-04-10T18:04:33;6.80;;;3.78;;
27778;SDS011;30234;48.090;11.464;2023-04-10T18:08:34;5.38;;;3.53;;
27778;SDS011;30234;48.090;11.464;2023-04-10T18:12:35;4.38;;;3.05;;
27778;SDS011;30234;48.090;11.464;2023-04-10T18:16:36;3.30;;;2.83;;
27778;SDS011;30234;48.090;11.464;2023-04-10T18:20:37;3.70;;;2.80;;
27778;SDS011;30234;48.090;11.464;2023-04-10T18:24:38;4.10;;;3.10;;
27778;SDS011;30234;48.090;11.464;2023-04-10T18:28:39;5.25;;;3.53;;
27778;SDS011;30234;48.090;11.464;2023-04-10T18:32:42;4.60;;;3.42;;
27778;SDS011;30234;48.090;11.464;2023-04-10T18:36:43;4.50;;;3.17;;
27778;SDS011;30234;48.090;11.464;2023-04-10T18:40:44;4.03;;;3.03;;
27778;SDS011;30234;48.090;11.464;2023-04-10T18:44:45;4.20;;;2.92;;
27778;SDS011;30234;48.090;11.464;2023-04-10T18:48:45;4.00;;;2.95;;
27778;SDS011;30234;48.090;11.464;2023-04-10T18:52:49;6.18;;;2.90;;
27778;SDS011;30234;48.090;11.464;2023-04-10T18:56:50;5.30;;;3.20;;
27778;SDS011;30234;48.090;11.464;2023-04-10T19:00:51;4.30;;;3.28;;
27778;SDS011;30234;48.090;11.464;2023-04-10T19:04:53;4.75;;;2.97;;
27778;SDS011;30234;48.090;11.464;2023-04-10T19:08:53;4.38;;;2.80;;
27778;SDS011;30234;48.090;11.464;2023-04-10T19:12:54;4.07;;;2.92;;
27778;SDS011;30234;48.090;11.464;2023-04-10T19:16:56;5.38;;;3.20;;
27778;SDS011;30234;48.090;11.464;2023-04-10T19:20:57;3.70;;;2.80;;
27778;SDS011;30234;48.090;11.464;2023-04-10T19:24:58;4.95;;;3.35;;
27778;SDS011;30234;48.090;11.464;2023-04-10T19:28:59;5.05;;;3.33;;
27778;SDS011;30234;48.090;11.464;2023-04-10T19:32:59;4.57;;;2.78;;
27778;SDS011;30234;48.090;11.464;2023-04-10T19:37:00;4.85;;;2.80;;
27778;SDS011;30234;48.090;11.464;2023-04-10T19:41:01;4.32;;;3.22;;
27778;SDS011;30234;48.090;11.464;2023-04-10T19:45:04;4.10;;;3.20;;
27778;SDS011;30234;48.090;11.464;2023-04-10T19:49:06;4.28;;;2.97;;
27778;SDS011;30234;48.090;11.464;2023-04-10T19:53:07;4.05;;;2.78;;
27778;SDS011;30234;48.090;11.464;2023-04-10T19:57:11;3.70;;;2.72;;
27778;SDS011;30234;48.090;11.464;2023-04-10T20:01:12;4.38;;;3.22;;
27778;SDS011;30234;48.090;11.464;2023-04-10T20:05:13;3.72;;;2.90;;
27778;SDS011;30234;48.090;11.464;2023-04-10T20:09:14;4.30;;;2.58;;
27778;SDS011;30234;48.090;11.464;2023-04-10T20:13:15;4.13;;;2.63;;
27778;SDS011;30234;48.090;11.464;2023-04-10T20:17:16;4.80;;;3.10;;
27778;SDS011;30234;48.090;11.464;2023-04-10T20:21:17;4.85;;;3.35;;
27778;SDS011;30234;48.090;11.464;2023-04-10T20:25:19;4.35;;;3.00;;
27778;SDS011;30234;48.090;11.464;2023-04-10T20:29:20;3.70;;;2.78;;
27778;SDS011;30234;48.090;11.464;2023-04-10T20:33:21;4.68;;;2.97;;
27778;SDS011;30234;48.090;11.464;2023-04-10T20:37:22;4.80;;;2.90;;
27778;SDS011;30234;48.090;11.464;2023-04-10T20:41:23;4.15;;;2.72;;
27778;SDS011;30234;48.090;11.464;2023-04-10T20:45:24;3.17;;;2.63;;
27778;SDS011;30234;48.090;11.464;2023-04-10T20:49:25;3.53;;;2.75;;
27778;SDS011;30234;48.090;11.464;2023-04-10T20:53:26;3.85;;;3.10;;
27778;SDS011;30234;48.090;11.464;2023-04-10T20:57:28;4.30;;;3.28;;
27778;SDS011;30234;48.090;11.464;2023-04-10T21:01:29;4.90;;;3.40;;
27778;SDS011;30234;48.090;11.464;2023-04-10T21:05:30;4.15;;;2.60;;
27778;SDS011;30234;48.090;11.464;2023-04-10T21:09:31;4.53;;;3.00;;
27778;SDS011;30234;48.090;11.464;2023-04-10T21:13:31;4.15;;;2.85;;
27778;SDS011;30234;48.090;11.464;2023-04-10T21:17:32;5.13;;;2.60;;
27778;SDS011;30234;48.090;11.464;2023-04-10T21:21:34;5.82;;;3.42;;
27778;SDS011;30234;48.090;11.464;2023-04-10T21:25:35;3.47;;;2.80;;
27778;SDS011;30234;48.090;11.464;2023-04-10T21:29:38;3.95;;;3.10;;
27778;SDS011;30234;48.090;11.464;2023-04-10T21:33:38;4.22;;;2.90;;
27778;SDS011;30234;48.090;11.464;2023-04-10T21:37:40;3.72;;;2.85;;
27778;SDS011;30234;48.090;11.464;2023-04-10T21:41:40;4.28;;;3.30;;
27778;SDS011;30234;48.090;11.464;2023-04-10T21:45:42;3.42;;;2.90;;
27778;SDS011;30234;48.090;11.464;2023-04-10T21:49:46;3.90;;;2.97;;
27778;SDS011;30234;48.090;11.464;2023-04-10T21:53:57;3.47;;;2.78;;
27778;SDS011;30234;48.090;11.464;2023-04-10T21:57:58;4.70;;;3.33;;
27778;SDS011;30234;48.090;11.464;2023-04-10T22:01:59;4.93;;;3.05;;
27778;SDS011;30234;48.090;11.464;2023-04-10T22:06:00;4.13;;;3.00;;
27778;SDS011;30234;48.090;11.464;2023-04-10T22:10:04;5.90;;;2.83;;
27778;SDS011;30234;48.090;11.464;2023-04-10T22:14:06;4.65;;;2.90;;
27778;SDS011;30234;48.090;11.464;2023-04-10T22:18:10;4.63;;;3.25;;
27778;SDS011;30234;48.090;11.464;2023-04-10T22:22:11;4.68;;;3.05;;
27778;SDS011;30234;48.090;11.464;2023-04-10T22:26:12;3.85;;;2.70;;
27778;SDS011;30234;48.090;11.464;2023-04-10T22:30:18;5.68;;;3.03;;
27778;SDS011;30234;48.090;11.464;2023-04-10T22:34:19;3.13;;;2.60;;
27778;SDS011;30234;48.090;11.464;2023-04-10T22:38:23;4.55;;;3.55;;
27778;SDS011;30234;48.090;11.464;2023-04-10T22:42:25;3.28;;;2.35;;
27778;SDS011;30234;48.090;11.464;2023-04-10T22:46:27;4.40;;;2.80;;
27778;SDS011;30234;48.090;11.464;2023-04-10T22:50:29;4.53;;;2.92;;
27778;SDS011;30234;48.090;11.464;2023-04-10T22:54:30;3.80;;;2.22;;
27778;SDS011;30234;48.090;11.464;2023-04-10T22:58:31;4.28;;;3.00;;
27778;SDS011;30234;48.090;11.464;2023-04-10T23:02:32;3.97;;;2.97;;
27778;SDS011;30234;48.090;11.464;2023-04-10T23:06:33;3.40;;;2.58;;
27778;SDS011;30234;48.090;11.464;2023-04-10T23:10:34;3.15;;;2.58;;
27778;SDS011;30234;48.090;11.464;2023-04-10T23:14:35;5.72;;;2.63;;
27778;SDS011;30234;48.090;11.464;2023-04-10T23:18:35;2.67;;;2.40;;
27778;SDS011;30234;48.090;11.464;2023-04-10T23:22:36;3.42;;;2.63;;
27778;SDS011;30234;48.090;11.464;2023-04-10T23:26:37;3.67;;;2.40;;
27778;SDS011;30234;48.090;11.464;2023-04-10T23:30:38;3.63;;;2.30;;
27778;SDS011;30234;48.090;11.464;2023-04-10T23:34:41;3.25;;;2.33;;
27778;SDS011;30234;48.090;11.464;2023-04-10T23:38:42;3.70;;;2.10;;
27778;SDS011;30234;48.090;11.464;2023-04-10T23:42:43;3.42;;;2.05;;
27778;SDS011;30234;48.090;11.464;2023-04-10T23:46:44;3.13;;;2.30;;
27778;SDS011;30234;48.090;11.464;2023-04-10T23:50:45;3.00;;;2.20;;
27778;SDS011;30234;48.090;11.464;2023-04-10T23:54:46;2.38;;;1.90;;
27778;SDS011;30234;48.090;11.464;2023-04-10T23:58:47;2.00;;;1.80;;
